Terminal Aerodrome Forecast
Issued by NWS

Home | Current Version | Previous Version | Text Only | Print | Product List | Glossary On
Versions: 1 2 3 4 5 6 7 8 9 10 11 12 13 14 15 16 17 18 19 20 21 22 23 24 25 26 27 28
000
FTUS45 KSLC 190538 CCA
TAFEVW
TAF COR
KEVW 190538Z 1906/2006 19006KT P6SM SCT100 BKN200
     FM191400 21008KT P6SM VCSH SCT040 BKN080
     FM191800 23009KT 2SM -SN BR SCT009 BKN020
     FM200200 25009KT P6SM -SHSN SCT009 BKN020=

USA.gov is the U.S. government's official web portal to all federal, state and local government web resources and services.